sensor_id;sensor_type;location;lat;lon;timestamp;P1;durP1;ratioP1;P2;durP2;ratioP2
12585;SDS011;6358;50.760;0.282;2023-06-26T00:00:06;2.72;;;1.52;;
12585;SDS011;6358;50.760;0.282;2023-06-26T00:02:32;2.65;;;1.50;;
12585;SDS011;6358;50.760;0.282;2023-06-26T00:04:59;3.00;;;1.60;;
12585;SDS011;6358;50.760;0.282;2023-06-26T00:07:27;1.90;;;1.60;;
12585;SDS011;6358;50.760;0.282;2023-06-26T00:09:54;2.70;;;1.60;;
12585;SDS011;6358;50.760;0.282;2023-06-26T00:12:20;2.72;;;1.40;;
12585;SDS011;6358;50.760;0.282;2023-06-26T00:14:46;2.40;;;1.25;;
12585;SDS011;6358;50.760;0.282;2023-06-26T00:17:12;1.65;;;1.33;;
12585;SDS011;6358;50.760;0.282;2023-06-26T00:19:38;2.50;;;1.40;;
12585;SDS011;6358;50.760;0.282;2023-06-26T00:22:04;2.50;;;1.35;;
12585;SDS011;6358;50.760;0.282;2023-06-26T00:24:30;2.22;;;1.17;;
12585;SDS011;6358;50.760;0.282;2023-06-26T00:26:56;1.48;;;1.33;;
12585;SDS011;6358;50.760;0.282;2023-06-26T00:29:23;3.35;;;1.27;;
12585;SDS011;6358;50.760;0.282;2023-06-26T00:31:50;2.05;;;1.23;;
12585;SDS011;6358;50.760;0.282;2023-06-26T00:34:16;2.92;;;1.50;;
12585;SDS011;6358;50.760;0.282;2023-06-26T00:36:42;2.58;;;1.50;;
12585;SDS011;6358;50.760;0.282;2023-06-26T00:39:09;1.88;;;1.30;;
12585;SDS011;6358;50.760;0.282;2023-06-26T00:41:36;2.30;;;1.40;;
12585;SDS011;6358;50.760;0.282;2023-06-26T00:44:02;1.73;;;1.25;;
12585;SDS011;6358;50.760;0.282;2023-06-26T00:46:28;2.53;;;1.20;;
12585;SDS011;6358;50.760;0.282;2023-06-26T00:48:54;2.97;;;1.17;;
12585;SDS011;6358;50.760;0.282;2023-06-26T00:51:21;1.60;;;1.35;;
12585;SDS011;6358;50.760;0.282;2023-06-26T00:53:47;2.03;;;1.20;;
12585;SDS011;6358;50.760;0.282;2023-06-26T00:56:14;1.45;;;1.08;;
12585;SDS011;6358;50.760;0.282;2023-06-26T00:58:40;1.95;;;1.30;;
12585;SDS011;6358;50.760;0.282;2023-06-26T01:01:06;3.30;;;1.20;;
12585;SDS011;6358;50.760;0.282;2023-06-26T01:03:33;1.63;;;1.10;;
12585;SDS011;6358;50.760;0.282;2023-06-26T01:06:02;1.33;;;1.00;;
12585;SDS011;6358;50.760;0.282;2023-06-26T01:08:28;1.73;;;1.00;;
12585;SDS011;6358;50.760;0.282;2023-06-26T01:10:54;2.00;;;1.17;;
12585;SDS011;6358;50.760;0.282;2023-06-26T01:13:20;2.00;;;1.42;;
12585;SDS011;6358;50.760;0.282;2023-06-26T01:15:47;1.25;;;1.10;;
12585;SDS011;6358;50.760;0.282;2023-06-26T01:18:13;0.90;;;0.82;;
12585;SDS011;6358;50.760;0.282;2023-06-26T01:20:40;1.20;;;1.00;;
12585;SDS011;6358;50.760;0.282;2023-06-26T01:23:14;1.27;;;1.10;;
12585;SDS011;6358;50.760;0.282;2023-06-26T01:25:56;2.83;;;1.17;;
12585;SDS011;6358;50.760;0.282;2023-06-26T01:28:25;2.05;;;1.10;;
12585;SDS011;6358;50.760;0.282;2023-06-26T01:30:52;1.85;;;1.00;;
12585;SDS011;6358;50.760;0.282;2023-06-26T01:33:19;3.88;;;1.10;;
12585;SDS011;6358;50.760;0.282;2023-06-26T01:35:45;1.85;;;1.08;;
12585;SDS011;6358;50.760;0.282;2023-06-26T01:38:16;2.13;;;1.17;;
12585;SDS011;6358;50.760;0.282;2023-06-26T01:40:42;2.10;;;0.90;;
12585;SDS011;6358;50.760;0.282;2023-06-26T01:43:11;1.30;;;1.00;;
12585;SDS011;6358;50.760;0.282;2023-06-26T01:45:41;0.93;;;0.90;;
12585;SDS011;6358;50.760;0.282;2023-06-26T01:48:08;1.65;;;0.93;;
12585;SDS011;6358;50.760;0.282;2023-06-26T01:50:36;1.17;;;1.08;;
12585;SDS011;6358;50.760;0.282;2023-06-26T01:55:38;1.10;;;1.00;;
12585;SDS011;6358;50.760;0.282;2023-06-26T01:58:06;1.85;;;1.23;;
12585;SDS011;6358;50.760;0.282;2023-06-26T02:00:32;1.60;;;1.02;;
12585;SDS011;6358;50.760;0.282;2023-06-26T02:02:58;1.00;;;0.90;;
12585;SDS011;6358;50.760;0.282;2023-06-26T02:05:24;1.60;;;1.08;;
12585;SDS011;6358;50.760;0.282;2023-06-26T02:07:51;1.50;;;1.20;;
12585;SDS011;6358;50.760;0.282;2023-06-26T02:10:17;1.63;;;1.10;;
12585;SDS011;6358;50.760;0.282;2023-06-26T02:12:43;1.48;;;0.93;;
12585;SDS011;6358;50.760;0.282;2023-06-26T02:15:09;1.77;;;1.10;;
12585;SDS011;6358;50.760;0.282;2023-06-26T02:17:36;1.90;;;1.35;;
12585;SDS011;6358;50.760;0.282;2023-06-26T02:20:02;2.72;;;1.23;;
12585;SDS011;6358;50.760;0.282;2023-06-26T02:22:28;1.27;;;1.10;;
12585;SDS011;6358;50.760;0.282;2023-06-26T02:24:54;1.50;;;1.02;;
12585;SDS011;6358;50.760;0.282;2023-06-26T02:27:20;1.90;;;1.13;;
12585;SDS011;6358;50.760;0.282;2023-06-26T02:29:46;2.55;;;1.33;;
12585;SDS011;6358;50.760;0.282;2023-06-26T02:32:12;1.60;;;1.13;;
12585;SDS011;6358;50.760;0.282;2023-06-26T02:34:38;2.22;;;1.20;;
12585;SDS011;6358;50.760;0.282;2023-06-26T02:37:04;1.60;;;1.30;;
12585;SDS011;6358;50.760;0.282;2023-06-26T02:39:32;1.40;;;1.13;;
12585;SDS011;6358;50.760;0.282;2023-06-26T02:41:58;1.92;;;1.00;;
12585;SDS011;6358;50.760;0.282;2023-06-26T02:44:24;1.50;;;1.10;;
12585;SDS011;6358;50.760;0.282;2023-06-26T02:46:50;1.02;;;1.00;;
12585;SDS011;6358;50.760;0.282;2023-06-26T02:49:16;1.50;;;1.10;;
12585;SDS011;6358;50.760;0.282;2023-06-26T02:51:42;1.70;;;1.13;;
12585;SDS011;6358;50.760;0.282;2023-06-26T02:54:09;1.92;;;1.27;;
12585;SDS011;6358;50.760;0.282;2023-06-26T02:56:35;1.60;;;1.05;;
12585;SDS011;6358;50.760;0.282;2023-06-26T02:59:01;1.13;;;0.90;;
12585;SDS011;6358;50.760;0.282;2023-06-26T03:01:27;4.03;;;1.50;;
12585;SDS011;6358;50.760;0.282;2023-06-26T03:03:54;2.38;;;1.00;;
12585;SDS011;6358;50.760;0.282;2023-06-26T03:06:20;1.98;;;1.20;;
12585;SDS011;6358;50.760;0.282;2023-06-26T03:08:46;1.58;;;1.00;;
12585;SDS011;6358;50.760;0.282;2023-06-26T03:11:12;1.13;;;1.05;;
12585;SDS011;6358;50.760;0.282;2023-06-26T03:13:38;1.30;;;1.20;;
12585;SDS011;6358;50.760;0.282;2023-06-26T03:16:04;1.77;;;1.20;;
12585;SDS011;6358;50.760;0.282;2023-06-26T03:18:30;2.22;;;1.30;;
12585;SDS011;6358;50.760;0.282;2023-06-26T03:20:56;2.30;;;1.33;;
12585;SDS011;6358;50.760;0.282;2023-06-26T03:23:23;2.58;;;0.93;;
12585;SDS011;6358;50.760;0.282;2023-06-26T03:25:50;2.15;;;1.10;;
12585;SDS011;6358;50.760;0.282;2023-06-26T03:28:16;1.30;;;1.20;;
12585;SDS011;6358;50.760;0.282;2023-06-26T03:30:42;1.13;;;1.02;;
12585;SDS011;6358;50.760;0.282;2023-06-26T03:33:09;1.48;;;0.90;;
12585;SDS011;6358;50.760;0.282;2023-06-26T03:35:35;1.83;;;1.20;;
12585;SDS011;6358;50.760;0.282;2023-06-26T03:38:01;1.23;;;1.05;;
12585;SDS011;6358;50.760;0.282;2023-06-26T03:40:27;1.90;;;1.10;;
12585;SDS011;6358;50.760;0.282;2023-06-26T03:42:53;1.20;;;1.10;;
12585;SDS011;6358;50.760;0.282;2023-06-26T03:45:19;3.15;;;1.50;;
12585;SDS011;6358;50.760;0.282;2023-06-26T03:47:45;3.13;;;1.20;;
12585;SDS011;6358;50.760;0.282;2023-06-26T03:50:18;2.13;;;1.20;;
12585;SDS011;6358;50.760;0.282;2023-06-26T03:52:44;1.05;;;0.90;;
12585;SDS011;6358;50.760;0.282;2023-06-26T03:55:10;2.15;;;1.30;;
12585;SDS011;6358;50.760;0.282;2023-06-26T03:57:36;2.10;;;1.10;;
12585;SDS011;6358;50.760;0.282;2023-06-26T04:00:03;2.72;;;1.13;;
12585;SDS011;6358;50.760;0.282;2023-06-26T04:02:37;1.05;;;0.80;;
12585;SDS011;6358;50.760;0.282;2023-06-26T04:05:04;1.95;;;1.00;;
12585;SDS011;6358;50.760;0.282;2023-06-26T04:07:30;3.08;;;1.40;;
12585;SDS011;6358;50.760;0.282;2023-06-26T04:09:56;1.85;;;1.00;;
12585;SDS011;6358;50.760;0.282;2023-06-26T04:12:22;1.33;;;1.00;;
12585;SDS011;6358;50.760;0.282;2023-06-26T04:14:48;4.25;;;1.40;;
12585;SDS011;6358;50.760;0.282;2023-06-26T04:17:15;1.58;;;1.10;;
12585;SDS011;6358;50.760;0.282;2023-06-26T04:19:41;1.40;;;1.20;;
12585;SDS011;6358;50.760;0.282;2023-06-26T04:22:07;1.42;;;1.20;;
12585;SDS011;6358;50.760;0.282;2023-06-26T04:24:33;1.70;;;1.13;;
12585;SDS011;6358;50.760;0.282;2023-06-26T04:26:59;3.13;;;1.23;;
12585;SDS011;6358;50.760;0.282;2023-06-26T04:29:25;1.73;;;1.17;;
12585;SDS011;6358;50.760;0.282;2023-06-26T04:31:52;1.58;;;1.05;;
12585;SDS011;6358;50.760;0.282;2023-06-26T04:34:22;1.25;;;1.10;;
12585;SDS011;6358;50.760;0.282;2023-06-26T04:36:48;1.50;;;1.10;;
12585;SDS011;6358;50.760;0.282;2023-06-26T04:39:15;1.10;;;1.00;;
12585;SDS011;6358;50.760;0.282;2023-06-26T04:41:41;1.63;;;1.17;;
12585;SDS011;6358;50.760;0.282;2023-06-26T04:44:08;1.45;;;1.20;;
12585;SDS011;6358;50.760;0.282;2023-06-26T04:46:34;1.88;;;1.20;;
12585;SDS011;6358;50.760;0.282;2023-06-26T04:49:00;1.08;;;0.93;;
12585;SDS011;6358;50.760;0.282;2023-06-26T04:51:28;1.98;;;1.10;;
12585;SDS011;6358;50.760;0.282;2023-06-26T04:53:54;1.13;;;1.02;;
12585;SDS011;6358;50.760;0.282;2023-06-26T04:56:20;2.50;;;1.48;;
12585;SDS011;6358;50.760;0.282;2023-06-26T04:58:46;2.05;;;1.40;;
12585;SDS011;6358;50.760;0.282;2023-06-26T05:01:12;2.67;;;1.20;;
12585;SDS011;6358;50.760;0.282;2023-06-26T05:03:38;1.65;;;1.10;;
12585;SDS011;6358;50.760;0.282;2023-06-26T05:06:05;1.73;;;1.25;;
12585;SDS011;6358;50.760;0.282;2023-06-26T05:08:31;2.92;;;1.50;;
12585;SDS011;6358;50.760;0.282;2023-06-26T05:10:57;1.65;;;1.20;;
12585;SDS011;6358;50.760;0.282;2023-06-26T05:13:26;1.67;;;1.35;;
12585;SDS011;6358;50.760;0.282;2023-06-26T05:15:53;1.90;;;1.10;;
12585;SDS011;6358;50.760;0.282;2023-06-26T05:18:19;2.08;;;1.00;;
12585;SDS011;6358;50.760;0.282;2023-06-26T05:20:45;1.52;;;1.10;;
12585;SDS011;6358;50.760;0.282;2023-06-26T05:23:11;1.70;;;1.23;;
12585;SDS011;6358;50.760;0.282;2023-06-26T05:25:38;2.42;;;1.42;;
12585;SDS011;6358;50.760;0.282;2023-06-26T05:28:04;2.33;;;1.48;;
12585;SDS011;6358;50.760;0.282;2023-06-26T05:30:31;2.17;;;1.10;;
12585;SDS011;6358;50.760;0.282;2023-06-26T05:33:00;2.58;;;1.20;;
12585;SDS011;6358;50.760;0.282;2023-06-26T05:35:29;1.13;;;0.95;;
12585;SDS011;6358;50.760;0.282;2023-06-26T05:37:56;1.88;;;1.20;;
12585;SDS011;6358;50.760;0.282;2023-06-26T05:40:23;1.65;;;1.25;;
12585;SDS011;6358;50.760;0.282;2023-06-26T05:42:49;2.80;;;1.35;;
12585;SDS011;6358;50.760;0.282;2023-06-26T05:45:15;2.05;;;0.98;;
12585;SDS011;6358;50.760;0.282;2023-06-26T05:47:42;1.60;;;1.33;;
12585;SDS011;6358;50.760;0.282;2023-06-26T05:50:08;1.65;;;1.25;;
12585;SDS011;6358;50.760;0.282;2023-06-26T05:52:35;1.48;;;1.13;;
12585;SDS011;6358;50.760;0.282;2023-06-26T05:55:02;2.50;;;1.30;;
12585;SDS011;6358;50.760;0.282;2023-06-26T05:57:29;1.77;;;1.20;;
12585;SDS011;6358;50.760;0.282;2023-06-26T05:59:56;1.30;;;1.20;;
12585;SDS011;6358;50.760;0.282;2023-06-26T06:02:22;1.65;;;1.10;;
12585;SDS011;6358;50.760;0.282;2023-06-26T06:04:48;1.42;;;1.30;;
12585;SDS011;6358;50.760;0.282;2023-06-26T06:07:14;1.45;;;1.10;;
12585;SDS011;6358;50.760;0.282;2023-06-26T06:09:40;2.17;;;1.30;;
12585;SDS011;6358;50.760;0.282;2023-06-26T06:12:07;2.38;;;1.50;;
12585;SDS011;6358;50.760;0.282;2023-06-26T06:14:34;2.38;;;1.35;;
12585;SDS011;6358;50.760;0.282;2023-06-26T06:17:00;2.85;;;1.67;;
12585;SDS011;6358;50.760;0.282;2023-06-26T06:19:26;5.22;;;1.52;;
12585;SDS011;6358;50.760;0.282;2023-06-26T06:21:52;3.00;;;1.50;;
12585;SDS011;6358;50.760;0.282;2023-06-26T06:24:19;3.70;;;1.60;;
12585;SDS011;6358;50.760;0.282;2023-06-26T06:26:45;2.45;;;1.60;;
12585;SDS011;6358;50.760;0.282;2023-06-26T06:29:11;2.28;;;1.27;;
12585;SDS011;6358;50.760;0.282;2023-06-26T06:31:37;2.75;;;1.40;;
12585;SDS011;6358;50.760;0.282;2023-06-26T06:34:03;2.08;;;1.20;;
12585;SDS011;6358;50.760;0.282;2023-06-26T06:36:29;2.08;;;1.30;;
12585;SDS011;6358;50.760;0.282;2023-06-26T06:38:56;2.72;;;1.40;;
12585;SDS011;6358;50.760;0.282;2023-06-26T06:41:22;1.20;;;1.10;;
12585;SDS011;6358;50.760;0.282;2023-06-26T06:43:48;2.85;;;1.33;;
12585;SDS011;6358;50.760;0.282;2023-06-26T06:46:14;1.92;;;1.20;;
12585;SDS011;6358;50.760;0.282;2023-06-26T06:48:40;3.05;;;1.13;;
12585;SDS011;6358;50.760;0.282;2023-06-26T06:51:06;2.22;;;1.40;;
12585;SDS011;6358;50.760;0.282;2023-06-26T06:53:32;2.55;;;1.52;;
12585;SDS011;6358;50.760;0.282;2023-06-26T06:55:58;1.75;;;1.20;;
12585;SDS011;6358;50.760;0.282;2023-06-26T06:58:24;2.60;;;1.45;;
12585;SDS011;6358;50.760;0.282;2023-06-26T07:00:50;2.55;;;1.30;;
12585;SDS011;6358;50.760;0.282;2023-06-26T07:03:17;3.35;;;1.25;;
12585;SDS011;6358;50.760;0.282;2023-06-26T07:05:43;1.67;;;1.10;;
12585;SDS011;6358;50.760;0.282;2023-06-26T07:08:09;3.58;;;1.70;;
12585;SDS011;6358;50.760;0.282;2023-06-26T07:10:35;2.63;;;1.40;;
12585;SDS011;6358;50.760;0.282;2023-06-26T07:13:01;2.95;;;1.60;;
12585;SDS011;6358;50.760;0.282;2023-06-26T07:15:28;2.72;;;1.25;;
12585;SDS011;6358;50.760;0.282;2023-06-26T07:17:54;5.18;;;2.10;;
12585;SDS011;6358;50.760;0.282;2023-06-26T07:20:20;4.00;;;1.60;;
12585;SDS011;6358;50.760;0.282;2023-06-26T07:22:46;3.58;;;1.90;;
12585;SDS011;6358;50.760;0.282;2023-06-26T07:25:12;7.60;;;1.85;;
12585;SDS011;6358;50.760;0.282;2023-06-26T07:27:39;3.83;;;1.70;;
12585;SDS011;6358;50.760;0.282;2023-06-26T07:30:05;4.35;;;2.03;;
12585;SDS011;6358;50.760;0.282;2023-06-26T07:32:34;3.80;;;1.67;;
12585;SDS011;6358;50.760;0.282;2023-06-26T07:35:00;5.13;;;1.80;;
12585;SDS011;6358;50.760;0.282;2023-06-26T07:37:26;8.10;;;2.20;;
12585;SDS011;6358;50.760;0.282;2023-06-26T07:39:52;4.38;;;1.95;;
12585;SDS011;6358;50.760;0.282;2023-06-26T07:42:18;4.63;;;1.77;;
12585;SDS011;6358;50.760;0.282;2023-06-26T07:44:44;4.72;;;2.13;;
12585;SDS011;6358;50.760;0.282;2023-06-26T07:47:11;5.68;;;2.38;;
12585;SDS011;6358;50.760;0.282;2023-06-26T07:49:37;4.70;;;2.15;;
12585;SDS011;6358;50.760;0.282;2023-06-26T07:52:04;5.18;;;2.10;;
12585;SDS011;6358;50.760;0.282;2023-06-26T07:54:30;6.47;;;2.17;;
12585;SDS011;6358;50.760;0.282;2023-06-26T07:56:57;9.15;;;3.45;;
12585;SDS011;6358;50.760;0.282;2023-06-26T07:59:24;3.17;;;1.85;;
12585;SDS011;6358;50.760;0.282;2023-06-26T08:01:51;7.15;;;2.40;;
12585;SDS011;6358;50.760;0.282;2023-06-26T08:04:21;5.57;;;2.10;;
12585;SDS011;6358;50.760;0.282;2023-06-26T08:06:48;5.10;;;2.15;;
12585;SDS011;6358;50.760;0.282;2023-06-26T08:09:14;3.15;;;1.70;;
12585;SDS011;6358;50.760;0.282;2023-06-26T08:11:40;6.22;;;1.90;;
12585;SDS011;6358;50.760;0.282;2023-06-26T08:14:06;5.70;;;2.03;;
12585;SDS011;6358;50.760;0.282;2023-06-26T08:16:32;4.47;;;2.20;;
12585;SDS011;6358;50.760;0.282;2023-06-26T08:18:58;7.13;;;2.95;;
12585;SDS011;6358;50.760;0.282;2023-06-26T08:21:24;5.78;;;2.70;;
12585;SDS011;6358;50.760;0.282;2023-06-26T08:23:50;6.57;;;2.58;;
12585;SDS011;6358;50.760;0.282;2023-06-26T08:26:17;3.65;;;2.40;;
12585;SDS011;6358;50.760;0.282;2023-06-26T08:28:43;5.15;;;2.72;;
12585;SDS011;6358;50.760;0.282;2023-06-26T08:31:09;3.88;;;2.10;;
12585;SDS011;6358;50.760;0.282;2023-06-26T08:33:35;3.95;;;1.83;;
12585;SDS011;6358;50.760;0.282;2023-06-26T08:36:01;4.03;;;2.13;;
12585;SDS011;6358;50.760;0.282;2023-06-26T08:38:27;3.17;;;1.80;;
12585;SDS011;6358;50.760;0.282;2023-06-26T08:40:53;3.83;;;1.90;;
12585;SDS011;6358;50.760;0.282;2023-06-26T08:43:19;5.28;;;1.90;;
12585;SDS011;6358;50.760;0.282;2023-06-26T08:45:47;4.88;;;1.90;;
12585;SDS011;6358;50.760;0.282;2023-06-26T08:48:16;4.22;;;2.03;;
12585;SDS011;6358;50.760;0.282;2023-06-26T08:50:42;7.32;;;2.35;;
12585;SDS011;6358;50.760;0.282;2023-06-26T08:55:38;6.45;;;1.92;;
12585;SDS011;6358;50.760;0.282;2023-06-26T08:58:06;3.83;;;1.70;;
12585;SDS011;6358;50.760;0.282;2023-06-26T09:00:33;6.93;;;2.40;;
12585;SDS011;6358;50.760;0.282;2023-06-26T09:02:59;2.95;;;1.70;;
12585;SDS011;6358;50.760;0.282;2023-06-26T09:05:26;3.58;;;1.80;;
12585;SDS011;6358;50.760;0.282;2023-06-26T09:07:56;3.55;;;1.75;;
12585;SDS011;6358;50.760;0.282;2023-06-26T09:10:23;6.53;;;1.88;;
12585;SDS011;6358;50.760;0.282;2023-06-26T09:12:49;3.50;;;1.70;;
12585;SDS011;6358;50.760;0.282;2023-06-26T09:15:19;5.25;;;1.95;;
12585;SDS011;6358;50.760;0.282;2023-06-26T09:17:45;5.07;;;1.98;;
12585;SDS011;6358;50.760;0.282;2023-06-26T09:20:12;4.93;;;2.10;;
12585;SDS011;6358;50.760;0.282;2023-06-26T09:22:41;4.20;;;1.70;;
12585;SDS011;6358;50.760;0.282;2023-06-26T09:25:07;4.82;;;1.83;;
12585;SDS011;6358;50.760;0.282;2023-06-26T09:27:34;4.32;;;1.88;;
12585;SDS011;6358;50.760;0.282;2023-06-26T09:30:01;5.03;;;2.20;;
12585;SDS011;6358;50.760;0.282;2023-06-26T09:32:27;7.53;;;2.45;;
12585;SDS011;6358;50.760;0.282;2023-06-26T09:34:53;6.55;;;2.13;;
12585;SDS011;6358;50.760;0.282;2023-06-26T09:37:25;7.35;;;2.40;;
12585;SDS011;6358;50.760;0.282;2023-06-26T09:39:52;6.32;;;2.22;;
12585;SDS011;6358;50.760;0.282;2023-06-26T09:42:18;7.13;;;2.33;;
12585;SDS011;6358;50.760;0.282;2023-06-26T09:44:45;7.82;;;2.30;;
12585;SDS011;6358;50.760;0.282;2023-06-26T09:47:11;5.07;;;2.28;;
12585;SDS011;6358;50.760;0.282;2023-06-26T09:49:40;5.97;;;2.38;;
12585;SDS011;6358;50.760;0.282;2023-06-26T09:52:07;5.07;;;2.15;;
12585;SDS011;6358;50.760;0.282;2023-06-26T09:54:33;5.40;;;2.20;;
12585;SDS011;6358;50.760;0.282;2023-06-26T09:57:07;5.97;;;2.30;;
12585;SDS011;6358;50.760;0.282;2023-06-26T09:59:33;5.75;;;2.35;;
12585;SDS011;6358;50.760;0.282;2023-06-26T10:02:01;7.45;;;2.25;;
12585;SDS011;6358;50.760;0.282;2023-06-26T10:04:27;6.35;;;2.45;;
12585;SDS011;6358;50.760;0.282;2023-06-26T10:06:56;5.45;;;2.03;;
12585;SDS011;6358;50.760;0.282;2023-06-26T10:09:23;5.85;;;2.15;;
12585;SDS011;6358;50.760;0.282;2023-06-26T10:14:16;4.80;;;1.92;;
12585;SDS011;6358;50.760;0.282;2023-06-26T10:16:42;5.18;;;2.53;;
12585;SDS011;6358;50.760;0.282;2023-06-26T10:19:10;6.15;;;1.90;;
12585;SDS011;6358;50.760;0.282;2023-06-26T10:21:37;4.07;;;1.90;;
12585;SDS011;6358;50.760;0.282;2023-06-26T10:24:05;4.60;;;1.90;;
12585;SDS011;6358;50.760;0.282;2023-06-26T10:26:31;3.72;;;1.77;;
12585;SDS011;6358;50.760;0.282;2023-06-26T10:29:00;5.03;;;2.05;;
12585;SDS011;6358;50.760;0.282;2023-06-26T10:31:27;7.00;;;2.03;;
12585;SDS011;6358;50.760;0.282;2023-06-26T10:33:54;4.45;;;2.13;;
12585;SDS011;6358;50.760;0.282;2023-06-26T10:36:26;5.03;;;1.92;;
12585;SDS011;6358;50.760;0.282;2023-06-26T10:38:54;3.60;;;1.83;;
12585;SDS011;6358;50.760;0.282;2023-06-26T10:41:24;4.43;;;1.80;;
12585;SDS011;6358;50.760;0.282;2023-06-26T10:46:25;3.33;;;1.83;;
12585;SDS011;6358;50.760;0.282;2023-06-26T10:48:57;3.67;;;1.80;;
12585;SDS011;6358;50.760;0.282;2023-06-26T10:51:25;5.43;;;2.05;;
12585;SDS011;6358;50.760;0.282;2023-06-26T10:53:57;4.63;;;2.08;;
12585;SDS011;6358;50.760;0.282;2023-06-26T10:56:42;3.10;;;1.73;;
12585;SDS011;6358;50.760;0.282;2023-06-26T11:01:41;3.42;;;1.90;;
12585;SDS011;6358;50.760;0.282;2023-06-26T11:04:07;3.50;;;1.90;;
12585;SDS011;6358;50.760;0.282;2023-06-26T11:06:35;2.58;;;1.65;;
12585;SDS011;6358;50.760;0.282;2023-06-26T11:14:15;3.55;;;2.08;;
12585;SDS011;6358;50.760;0.282;2023-06-26T11:16:44;5.05;;;1.80;;
12585;SDS011;6358;50.760;0.282;2023-06-26T11:19:11;4.72;;;1.90;;
12585;SDS011;6358;50.760;0.282;2023-06-26T11:21:38;4.18;;;1.67;;
12585;SDS011;6358;50.760;0.282;2023-06-26T11:24:08;6.22;;;2.00;;
12585;SDS011;6358;50.760;0.282;2023-06-26T11:26:52;5.45;;;1.88;;
12585;SDS011;6358;50.760;0.282;2023-06-26T11:29:18;4.03;;;1.77;;
12585;SDS011;6358;50.760;0.282;2023-06-26T11:31:45;5.05;;;2.13;;
12585;SDS011;6358;50.760;0.282;2023-06-26T11:34:11;3.80;;;1.98;;
12585;SDS011;6358;50.760;0.282;2023-06-26T11:36:39;5.68;;;2.10;;
12585;SDS011;6358;50.760;0.282;2023-06-26T11:39:07;4.38;;;2.03;;
12585;SDS011;6358;50.760;0.282;2023-06-26T11:41:34;7.45;;;2.47;;
12585;SDS011;6358;50.760;0.282;2023-06-26T11:46:29;5.65;;;2.15;;
12585;SDS011;6358;50.760;0.282;2023-06-26T11:48:56;8.07;;;2.58;;
12585;SDS011;6358;50.760;0.282;2023-06-26T11:51:22;6.15;;;2.30;;
12585;SDS011;6358;50.760;0.282;2023-06-26T11:53:48;6.85;;;2.20;;
12585;SDS011;6358;50.760;0.282;2023-06-26T11:56:15;6.93;;;2.33;;
12585;SDS011;6358;50.760;0.282;2023-06-26T12:01:24;5.57;;;2.30;;
12585;SDS011;6358;50.760;0.282;2023-06-26T12:03:51;7.70;;;2.50;;
12585;SDS011;6358;50.760;0.282;2023-06-26T12:06:17;7.20;;;1.90;;
12585;SDS011;6358;50.760;0.282;2023-06-26T12:08:44;4.70;;;2.00;;
12585;SDS011;6358;50.760;0.282;2023-06-26T12:11:10;5.13;;;2.00;;
12585;SDS011;6358;50.760;0.282;2023-06-26T12:13:36;7.55;;;2.88;;
12585;SDS011;6358;50.760;0.282;2023-06-26T12:16:02;4.78;;;2.20;;
12585;SDS011;6358;50.760;0.282;2023-06-26T12:18:35;7.63;;;2.60;;
12585;SDS011;6358;50.760;0.282;2023-06-26T12:21:01;6.35;;;2.35;;
12585;SDS011;6358;50.760;0.282;2023-06-26T12:23:33;6.57;;;2.00;;
12585;SDS011;6358;50.760;0.282;2023-06-26T12:26:19;7.93;;;2.40;;
12585;SDS011;6358;50.760;0.282;2023-06-26T12:28:46;6.10;;;2.20;;
12585;SDS011;6358;50.760;0.282;2023-06-26T12:31:13;5.70;;;2.20;;
12585;SDS011;6358;50.760;0.282;2023-06-26T12:33:39;7.43;;;2.50;;
12585;SDS011;6358;50.760;0.282;2023-06-26T12:36:09;7.05;;;1.80;;
12585;SDS011;6358;50.760;0.282;2023-06-26T12:38:35;3.95;;;2.22;;
12585;SDS011;6358;50.760;0.282;2023-06-26T12:41:01;6.93;;;2.17;;
12585;SDS011;6358;50.760;0.282;2023-06-26T12:43:28;9.00;;;2.33;;
12585;SDS011;6358;50.760;0.282;2023-06-26T12:45:54;6.00;;;2.22;;
12585;SDS011;6358;50.760;0.282;2023-06-26T12:48:21;4.88;;;1.90;;
12585;SDS011;6358;50.760;0.282;2023-06-26T12:50:47;5.13;;;1.80;;
12585;SDS011;6358;50.760;0.282;2023-06-26T12:53:15;7.22;;;2.13;;
12585;SDS011;6358;50.760;0.282;2023-06-26T12:55:42;7.13;;;2.35;;
12585;SDS011;6358;50.760;0.282;2023-06-26T12:58:08;4.63;;;1.80;;
12585;SDS011;6358;50.760;0.282;2023-06-26T13:00:34;4.90;;;2.15;;
12585;SDS011;6358;50.760;0.282;2023-06-26T13:03:00;7.28;;;2.75;;
12585;SDS011;6358;50.760;0.282;2023-06-26T13:05:26;6.72;;;2.40;;
12585;SDS011;6358;50.760;0.282;2023-06-26T13:07:52;8.18;;;2.45;;
12585;SDS011;6358;50.760;0.282;2023-06-26T13:10:19;6.45;;;2.08;;
12585;SDS011;6358;50.760;0.282;2023-06-26T13:12:46;6.35;;;2.35;;
12585;SDS011;6358;50.760;0.282;2023-06-26T13:15:12;5.70;;;2.00;;
12585;SDS011;6358;50.760;0.282;2023-06-26T13:17:38;5.15;;;2.05;;
12585;SDS011;6358;50.760;0.282;2023-06-26T13:20:05;5.25;;;2.10;;
12585;SDS011;6358;50.760;0.282;2023-06-26T13:22:31;4.07;;;1.75;;
12585;SDS011;6358;50.760;0.282;2023-06-26T13:24:58;5.22;;;2.25;;
12585;SDS011;6358;50.760;0.282;2023-06-26T13:27:24;5.45;;;2.10;;
12585;SDS011;6358;50.760;0.282;2023-06-26T13:29:50;4.40;;;1.85;;
12585;SDS011;6358;50.760;0.282;2023-06-26T13:32:17;9.35;;;2.33;;
12585;SDS011;6358;50.760;0.282;2023-06-26T13:34:44;6.57;;;2.20;;
12585;SDS011;6358;50.760;0.282;2023-06-26T13:37:11;6.35;;;2.25;;
12585;SDS011;6358;50.760;0.282;2023-06-26T13:39:37;4.63;;;2.22;;
12585;SDS011;6358;50.760;0.282;2023-06-26T13:42:03;3.50;;;1.80;;
12585;SDS011;6358;50.760;0.282;2023-06-26T13:44:29;7.18;;;2.30;;
12585;SDS011;6358;50.760;0.282;2023-06-26T13:46:55;4.97;;;1.90;;
12585;SDS011;6358;50.760;0.282;2023-06-26T13:49:21;5.47;;;2.10;;
12585;SDS011;6358;50.760;0.282;2023-06-26T13:51:47;5.07;;;2.10;;
12585;SDS011;6358;50.760;0.282;2023-06-26T13:54:14;4.30;;;2.17;;
12585;SDS011;6358;50.760;0.282;2023-06-26T13:56:40;4.20;;;1.85;;
12585;SDS011;6358;50.760;0.282;2023-06-26T13:59:06;6.45;;;2.50;;
12585;SDS011;6358;50.760;0.282;2023-06-26T14:01:32;5.05;;;2.28;;
12585;SDS011;6358;50.760;0.282;2023-06-26T14:03:58;5.70;;;2.20;;
12585;SDS011;6358;50.760;0.282;2023-06-26T14:06:25;5.30;;;2.20;;
12585;SDS011;6358;50.760;0.282;2023-06-26T14:08:51;4.90;;;2.05;;
12585;SDS011;6358;50.760;0.282;2023-06-26T14:11:17;7.45;;;2.38;;
12585;SDS011;6358;50.760;0.282;2023-06-26T14:13:43;8.43;;;2.95;;
12585;SDS011;6358;50.760;0.282;2023-06-26T14:16:10;7.78;;;2.80;;
12585;SDS011;6358;50.760;0.282;2023-06-26T14:18:37;7.35;;;2.47;;
12585;SDS011;6358;50.760;0.282;2023-06-26T14:21:03;6.13;;;2.00;;
12585;SDS011;6358;50.760;0.282;2023-06-26T14:23:29;8.20;;;2.22;;
12585;SDS011;6358;50.760;0.282;2023-06-26T14:25:56;7.55;;;2.58;;
12585;SDS011;6358;50.760;0.282;2023-06-26T14:28:22;6.55;;;2.33;;
12585;SDS011;6358;50.760;0.282;2023-06-26T14:30:48;4.88;;;2.38;;
12585;SDS011;6358;50.760;0.282;2023-06-26T14:33:14;7.30;;;2.60;;
12585;SDS011;6358;50.760;0.282;2023-06-26T14:35:40;7.30;;;2.60;;
12585;SDS011;6358;50.760;0.282;2023-06-26T14:38:06;5.95;;;2.38;;
12585;SDS011;6358;50.760;0.282;2023-06-26T14:40:32;5.38;;;2.30;;
12585;SDS011;6358;50.760;0.282;2023-06-26T14:42:58;10.73;;;3.17;;
12585;SDS011;6358;50.760;0.282;2023-06-26T14:45:24;7.40;;;2.50;;
12585;SDS011;6358;50.760;0.282;2023-06-26T14:47:50;6.43;;;2.60;;
12585;SDS011;6358;50.760;0.282;2023-06-26T14:50:16;4.80;;;2.28;;
12585;SDS011;6358;50.760;0.282;2023-06-26T14:52:43;6.80;;;2.20;;
12585;SDS011;6358;50.760;0.282;2023-06-26T14:55:09;6.20;;;2.33;;
12585;SDS011;6358;50.760;0.282;2023-06-26T14:57:35;8.77;;;2.40;;
12585;SDS011;6358;50.760;0.282;2023-06-26T15:00:02;4.65;;;2.17;;
12585;SDS011;6358;50.760;0.282;2023-06-26T15:02:28;7.10;;;2.30;;
12585;SDS011;6358;50.760;0.282;2023-06-26T15:04:54;8.02;;;2.30;;
12585;SDS011;6358;50.760;0.282;2023-06-26T15:07:20;7.53;;;2.30;;
12585;SDS011;6358;50.760;0.282;2023-06-26T15:09:46;6.63;;;2.42;;
12585;SDS011;6358;50.760;0.282;2023-06-26T15:12:12;9.00;;;3.05;;
12585;SDS011;6358;50.760;0.282;2023-06-26T15:14:38;7.00;;;2.78;;
12585;SDS011;6358;50.760;0.282;2023-06-26T15:17:04;7.43;;;2.75;;
12585;SDS011;6358;50.760;0.282;2023-06-26T15:19:30;7.45;;;2.83;;